sensor_id;sensor_type;location;lat;lon;timestamp;P1;durP1;ratioP1;P2;durP2;ratioP2
24147;SDS011;12309;51.450;-2.624;2023-07-13T00:01:46;7.05;;;2.13;;
24147;SDS011;12309;51.450;-2.624;2023-07-13T00:04:14;8.02;;;2.13;;
24147;SDS011;12309;51.450;-2.624;2023-07-13T00:06:42;10.88;;;2.65;;
24147;SDS011;12309;51.450;-2.624;2023-07-13T00:09:09;10.02;;;2.63;;
24147;SDS011;12309;51.450;-2.624;2023-07-13T00:11:37;14.38;;;2.30;;
24147;SDS011;12309;51.450;-2.624;2023-07-13T00:14:03;8.55;;;2.55;;
24147;SDS011;12309;51.450;-2.624;2023-07-13T00:16:29;12.80;;;2.78;;
24147;SDS011;12309;51.450;-2.624;2023-07-13T00:18:54;11.25;;;2.50;;
24147;SDS011;12309;51.450;-2.624;2023-07-13T00:21:20;12.40;;;2.80;;
24147;SDS011;12309;51.450;-2.624;2023-07-13T00:23:46;7.95;;;2.30;;
24147;SDS011;12309;51.450;-2.624;2023-07-13T00:26:12;9.05;;;2.53;;
24147;SDS011;12309;51.450;-2.624;2023-07-13T00:28:38;10.23;;;2.50;;
24147;SDS011;12309;51.450;-2.624;2023-07-13T00:31:05;11.77;;;2.42;;
24147;SDS011;12309;51.450;-2.624;2023-07-13T00:33:31;9.30;;;2.75;;
24147;SDS011;12309;51.450;-2.624;2023-07-13T00:35:58;6.72;;;2.13;;
24147;SDS011;12309;51.450;-2.624;2023-07-13T00:38:23;11.63;;;2.83;;
24147;SDS011;12309;51.450;-2.624;2023-07-13T00:40:49;10.80;;;3.15;;
24147;SDS011;12309;51.450;-2.624;2023-07-13T00:46:25;7.30;;;2.60;;
24147;SDS011;12309;51.450;-2.624;2023-07-13T00:48:54;12.00;;;2.75;;
24147;SDS011;12309;51.450;-2.624;2023-07-13T00:51:27;7.22;;;2.55;;
24147;SDS011;12309;51.450;-2.624;2023-07-13T00:53:58;14.05;;;2.60;;
24147;SDS011;12309;51.450;-2.624;2023-07-13T00:56:26;9.73;;;2.80;;
24147;SDS011;12309;51.450;-2.624;2023-07-13T00:58:53;8.48;;;2.60;;
24147;SDS011;12309;51.450;-2.624;2023-07-13T01:01:20;9.32;;;2.33;;
24147;SDS011;12309;51.450;-2.624;2023-07-13T01:03:46;13.35;;;2.92;;
24147;SDS011;12309;51.450;-2.624;2023-07-13T01:06:11;9.88;;;2.70;;
24147;SDS011;12309;51.450;-2.624;2023-07-13T01:08:38;8.20;;;2.75;;
24147;SDS011;12309;51.450;-2.624;2023-07-13T01:11:05;9.45;;;2.92;;
24147;SDS011;12309;51.450;-2.624;2023-07-13T01:13:33;8.80;;;2.30;;
24147;SDS011;12309;51.450;-2.624;2023-07-13T01:16:01;14.15;;;2.80;;
24147;SDS011;12309;51.450;-2.624;2023-07-13T01:18:34;5.95;;;2.33;;
24147;SDS011;12309;51.450;-2.624;2023-07-13T01:21:01;14.63;;;3.38;;
24147;SDS011;12309;51.450;-2.624;2023-07-13T01:23:29;11.10;;;3.53;;
24147;SDS011;12309;51.450;-2.624;2023-07-13T01:25:56;11.45;;;2.92;;
24147;SDS011;12309;51.450;-2.624;2023-07-13T01:28:23;14.15;;;2.90;;
24147;SDS011;12309;51.450;-2.624;2023-07-13T01:30:52;6.40;;;2.72;;
24147;SDS011;12309;51.450;-2.624;2023-07-13T01:33:19;8.05;;;2.55;;
24147;SDS011;12309;51.450;-2.624;2023-07-13T01:35:45;11.18;;;2.95;;
24147;SDS011;12309;51.450;-2.624;2023-07-13T01:38:13;5.72;;;2.28;;
24147;SDS011;12309;51.450;-2.624;2023-07-13T01:40:40;11.35;;;3.00;;
24147;SDS011;12309;51.450;-2.624;2023-07-13T01:43:05;11.93;;;2.70;;
24147;SDS011;12309;51.450;-2.624;2023-07-13T01:45:32;6.55;;;2.67;;
24147;SDS011;12309;51.450;-2.624;2023-07-13T01:47:58;8.63;;;2.88;;
24147;SDS011;12309;51.450;-2.624;2023-07-13T01:50:24;10.10;;;2.70;;
24147;SDS011;12309;51.450;-2.624;2023-07-13T01:52:51;8.80;;;2.38;;
24147;SDS011;12309;51.450;-2.624;2023-07-13T01:55:17;8.02;;;3.10;;
24147;SDS011;12309;51.450;-2.624;2023-07-13T01:57:42;8.93;;;2.38;;
24147;SDS011;12309;51.450;-2.624;2023-07-13T02:00:09;13.18;;;2.40;;
24147;SDS011;12309;51.450;-2.624;2023-07-13T02:02:35;9.57;;;2.90;;
24147;SDS011;12309;51.450;-2.624;2023-07-13T02:05:01;7.40;;;2.70;;
24147;SDS011;12309;51.450;-2.624;2023-07-13T02:07:27;11.23;;;3.50;;
24147;SDS011;12309;51.450;-2.624;2023-07-13T02:09:52;5.97;;;2.35;;
24147;SDS011;12309;51.450;-2.624;2023-07-13T02:12:18;10.23;;;3.05;;
24147;SDS011;12309;51.450;-2.624;2023-07-13T02:14:44;9.63;;;3.15;;
24147;SDS011;12309;51.450;-2.624;2023-07-13T02:17:10;7.35;;;3.40;;
24147;SDS011;12309;51.450;-2.624;2023-07-13T02:19:36;9.52;;;2.97;;
24147;SDS011;12309;51.450;-2.624;2023-07-13T02:22:02;8.32;;;3.38;;
24147;SDS011;12309;51.450;-2.624;2023-07-13T02:24:27;9.40;;;2.67;;
24147;SDS011;12309;51.450;-2.624;2023-07-13T02:26:53;11.95;;;2.97;;
24147;SDS011;12309;51.450;-2.624;2023-07-13T02:29:19;7.07;;;3.33;;
24147;SDS011;12309;51.450;-2.624;2023-07-13T02:31:44;10.00;;;2.92;;
24147;SDS011;12309;51.450;-2.624;2023-07-13T02:34:10;17.63;;;3.33;;
24147;SDS011;12309;51.450;-2.624;2023-07-13T02:36:36;12.32;;;2.83;;
24147;SDS011;12309;51.450;-2.624;2023-07-13T02:39:02;6.38;;;2.60;;
24147;SDS011;12309;51.450;-2.624;2023-07-13T02:41:30;7.88;;;2.70;;
24147;SDS011;12309;51.450;-2.624;2023-07-13T02:43:57;6.63;;;2.50;;
24147;SDS011;12309;51.450;-2.624;2023-07-13T02:46:31;4.47;;;2.30;;
24147;SDS011;12309;51.450;-2.624;2023-07-13T02:48:58;11.27;;;2.60;;
24147;SDS011;12309;51.450;-2.624;2023-07-13T02:51:24;8.02;;;2.58;;
24147;SDS011;12309;51.450;-2.624;2023-07-13T02:53:50;7.82;;;2.10;;
24147;SDS011;12309;51.450;-2.624;2023-07-13T02:56:16;14.27;;;2.78;;
24147;SDS011;12309;51.450;-2.624;2023-07-13T02:58:41;7.75;;;2.53;;
24147;SDS011;12309;51.450;-2.624;2023-07-13T03:01:08;6.28;;;2.03;;
24147;SDS011;12309;51.450;-2.624;2023-07-13T03:03:35;7.50;;;2.25;;
24147;SDS011;12309;51.450;-2.624;2023-07-13T03:06:01;8.80;;;2.60;;
24147;SDS011;12309;51.450;-2.624;2023-07-13T03:08:28;4.93;;;2.40;;
24147;SDS011;12309;51.450;-2.624;2023-07-13T03:11:01;13.65;;;2.20;;
24147;SDS011;12309;51.450;-2.624;2023-07-13T03:13:33;7.72;;;2.58;;
24147;SDS011;12309;51.450;-2.624;2023-07-13T03:15:59;7.93;;;2.20;;
24147;SDS011;12309;51.450;-2.624;2023-07-13T03:18:27;5.43;;;1.98;;
24147;SDS011;12309;51.450;-2.624;2023-07-13T03:20:53;8.50;;;2.35;;
24147;SDS011;12309;51.450;-2.624;2023-07-13T03:23:20;7.32;;;2.20;;
24147;SDS011;12309;51.450;-2.624;2023-07-13T03:25:46;8.68;;;2.25;;
24147;SDS011;12309;51.450;-2.624;2023-07-13T03:28:13;8.98;;;2.28;;
24147;SDS011;12309;51.450;-2.624;2023-07-13T03:30:39;10.77;;;2.67;;
24147;SDS011;12309;51.450;-2.624;2023-07-13T03:33:05;6.03;;;2.40;;
24147;SDS011;12309;51.450;-2.624;2023-07-13T03:35:30;6.95;;;2.60;;
24147;SDS011;12309;51.450;-2.624;2023-07-13T03:37:57;12.25;;;3.13;;
24147;SDS011;12309;51.450;-2.624;2023-07-13T03:40:24;8.98;;;2.15;;
24147;SDS011;12309;51.450;-2.624;2023-07-13T03:42:51;9.50;;;2.25;;
24147;SDS011;12309;51.450;-2.624;2023-07-13T03:45:17;12.02;;;3.00;;
24147;SDS011;12309;51.450;-2.624;2023-07-13T03:47:43;11.35;;;2.50;;
24147;SDS011;12309;51.450;-2.624;2023-07-13T03:50:09;8.25;;;2.35;;
24147;SDS011;12309;51.450;-2.624;2023-07-13T03:52:34;12.90;;;2.65;;
24147;SDS011;12309;51.450;-2.624;2023-07-13T03:55:00;13.23;;;2.40;;
24147;SDS011;12309;51.450;-2.624;2023-07-13T03:57:26;8.20;;;2.90;;
24147;SDS011;12309;51.450;-2.624;2023-07-13T03:59:51;7.82;;;2.65;;
24147;SDS011;12309;51.450;-2.624;2023-07-13T04:02:17;15.05;;;3.10;;
24147;SDS011;12309;51.450;-2.624;2023-07-13T04:04:43;8.60;;;2.58;;
24147;SDS011;12309;51.450;-2.624;2023-07-13T04:07:09;13.48;;;3.10;;
24147;SDS011;12309;51.450;-2.624;2023-07-13T04:09:35;17.25;;;3.28;;
24147;SDS011;12309;51.450;-2.624;2023-07-13T04:12:01;7.70;;;3.05;;
24147;SDS011;12309;51.450;-2.624;2023-07-13T04:14:27;10.02;;;2.70;;
24147;SDS011;12309;51.450;-2.624;2023-07-13T04:16:52;7.15;;;3.08;;
24147;SDS011;12309;51.450;-2.624;2023-07-13T04:19:19;10.38;;;3.40;;
24147;SDS011;12309;51.450;-2.624;2023-07-13T04:21:46;9.93;;;3.10;;
24147;SDS011;12309;51.450;-2.624;2023-07-13T04:24:11;10.13;;;3.30;;
24147;SDS011;12309;51.450;-2.624;2023-07-13T04:26:37;10.15;;;3.53;;
24147;SDS011;12309;51.450;-2.624;2023-07-13T04:29:04;9.35;;;3.08;;
24147;SDS011;12309;51.450;-2.624;2023-07-13T04:31:31;6.88;;;3.30;;
24147;SDS011;12309;51.450;-2.624;2023-07-13T04:33:57;7.25;;;2.90;;
24147;SDS011;12309;51.450;-2.624;2023-07-13T04:36:23;10.45;;;3.22;;
24147;SDS011;12309;51.450;-2.624;2023-07-13T04:38:52;11.55;;;3.63;;
24147;SDS011;12309;51.450;-2.624;2023-07-13T04:41:18;13.25;;;2.83;;
24147;SDS011;12309;51.450;-2.624;2023-07-13T04:43:45;10.02;;;2.88;;
24147;SDS011;12309;51.450;-2.624;2023-07-13T04:46:12;7.93;;;2.67;;
24147;SDS011;12309;51.450;-2.624;2023-07-13T04:48:40;10.50;;;2.80;;
24147;SDS011;12309;51.450;-2.624;2023-07-13T04:51:06;6.75;;;2.70;;
24147;SDS011;12309;51.450;-2.624;2023-07-13T04:53:32;12.00;;;3.03;;
24147;SDS011;12309;51.450;-2.624;2023-07-13T04:55:59;8.68;;;3.03;;
24147;SDS011;12309;51.450;-2.624;2023-07-13T04:58:25;6.93;;;2.92;;
24147;SDS011;12309;51.450;-2.624;2023-07-13T05:00:52;10.00;;;3.33;;
24147;SDS011;12309;51.450;-2.624;2023-07-13T05:03:18;7.82;;;2.88;;
24147;SDS011;12309;51.450;-2.624;2023-07-13T05:05:54;10.63;;;3.20;;
24147;SDS011;12309;51.450;-2.624;2023-07-13T05:08:21;13.05;;;4.30;;
24147;SDS011;12309;51.450;-2.624;2023-07-13T05:10:47;8.98;;;3.58;;
24147;SDS011;12309;51.450;-2.624;2023-07-13T05:13:12;7.15;;;3.10;;
24147;SDS011;12309;51.450;-2.624;2023-07-13T05:15:38;13.82;;;3.40;;
24147;SDS011;12309;51.450;-2.624;2023-07-13T05:18:04;9.07;;;3.00;;
24147;SDS011;12309;51.450;-2.624;2023-07-13T05:20:29;9.02;;;3.05;;
24147;SDS011;12309;51.450;-2.624;2023-07-13T05:22:55;10.77;;;3.20;;
24147;SDS011;12309;51.450;-2.624;2023-07-13T05:25:21;6.55;;;2.92;;
24147;SDS011;12309;51.450;-2.624;2023-07-13T05:27:47;8.98;;;3.08;;
24147;SDS011;12309;51.450;-2.624;2023-07-13T05:30:13;10.70;;;2.60;;
24147;SDS011;12309;51.450;-2.624;2023-07-13T05:32:39;7.88;;;2.58;;
24147;SDS011;12309;51.450;-2.624;2023-07-13T05:35:05;6.50;;;2.30;;
24147;SDS011;12309;51.450;-2.624;2023-07-13T05:37:31;5.78;;;2.00;;
24147;SDS011;12309;51.450;-2.624;2023-07-13T05:39:56;10.32;;;2.53;;
24147;SDS011;12309;51.450;-2.624;2023-07-13T05:42:22;8.20;;;2.30;;
24147;SDS011;12309;51.450;-2.624;2023-07-13T05:44:48;6.35;;;2.35;;
24147;SDS011;12309;51.450;-2.624;2023-07-13T05:47:13;6.60;;;2.00;;
24147;SDS011;12309;51.450;-2.624;2023-07-13T05:49:40;5.00;;;2.08;;
24147;SDS011;12309;51.450;-2.624;2023-07-13T05:52:05;7.63;;;2.35;;
24147;SDS011;12309;51.450;-2.624;2023-07-13T05:54:31;6.00;;;2.20;;
24147;SDS011;12309;51.450;-2.624;2023-07-13T05:56:57;5.15;;;1.50;;
24147;SDS011;12309;51.450;-2.624;2023-07-13T05:59:23;10.65;;;1.83;;
24147;SDS011;12309;51.450;-2.624;2023-07-13T06:01:49;6.20;;;2.10;;
24147;SDS011;12309;51.450;-2.624;2023-07-13T06:04:14;3.58;;;1.63;;
24147;SDS011;12309;51.450;-2.624;2023-07-13T06:06:40;4.22;;;1.70;;
24147;SDS011;12309;51.450;-2.624;2023-07-13T06:09:05;2.95;;;1.55;;
24147;SDS011;12309;51.450;-2.624;2023-07-13T06:11:31;3.95;;;1.52;;
24147;SDS011;12309;51.450;-2.624;2023-07-13T06:13:57;5.45;;;1.45;;
24147;SDS011;12309;51.450;-2.624;2023-07-13T06:16:23;7.20;;;1.73;;
24147;SDS011;12309;51.450;-2.624;2023-07-13T06:18:48;4.78;;;1.77;;
24147;SDS011;12309;51.450;-2.624;2023-07-13T06:21:15;5.55;;;1.60;;
24147;SDS011;12309;51.450;-2.624;2023-07-13T06:23:43;6.60;;;2.03;;
24147;SDS011;12309;51.450;-2.624;2023-07-13T06:26:09;5.60;;;1.90;;
24147;SDS011;12309;51.450;-2.624;2023-07-13T06:28:36;9.43;;;1.95;;
24147;SDS011;12309;51.450;-2.624;2023-07-13T06:31:04;7.85;;;2.30;;
24147;SDS011;12309;51.450;-2.624;2023-07-13T06:33:31;6.10;;;1.80;;
24147;SDS011;12309;51.450;-2.624;2023-07-13T06:35:57;4.55;;;1.48;;
24147;SDS011;12309;51.450;-2.624;2023-07-13T06:38:22;8.00;;;1.90;;
24147;SDS011;12309;51.450;-2.624;2023-07-13T06:40:48;5.63;;;1.75;;
24147;SDS011;12309;51.450;-2.624;2023-07-13T06:43:14;8.57;;;1.50;;
24147;SDS011;12309;51.450;-2.624;2023-07-13T06:45:40;8.75;;;1.83;;
24147;SDS011;12309;51.450;-2.624;2023-07-13T06:48:08;6.72;;;2.08;;
24147;SDS011;12309;51.450;-2.624;2023-07-13T06:50:33;6.15;;;2.10;;
24147;SDS011;12309;51.450;-2.624;2023-07-13T06:52:59;8.02;;;2.38;;
24147;SDS011;12309;51.450;-2.624;2023-07-13T06:55:25;6.78;;;1.65;;
24147;SDS011;12309;51.450;-2.624;2023-07-13T06:57:51;5.78;;;1.70;;
24147;SDS011;12309;51.450;-2.624;2023-07-13T07:00:17;7.63;;;1.80;;
24147;SDS011;12309;51.450;-2.624;2023-07-13T07:02:43;6.50;;;1.90;;
24147;SDS011;12309;51.450;-2.624;2023-07-13T07:05:08;5.18;;;2.08;;
24147;SDS011;12309;51.450;-2.624;2023-07-13T07:07:34;5.53;;;1.40;;
24147;SDS011;12309;51.450;-2.624;2023-07-13T07:10:00;7.20;;;1.60;;
24147;SDS011;12309;51.450;-2.624;2023-07-13T07:12:26;6.45;;;1.60;;
24147;SDS011;12309;51.450;-2.624;2023-07-13T07:14:52;5.90;;;1.50;;
24147;SDS011;12309;51.450;-2.624;2023-07-13T07:17:18;7.47;;;1.67;;
24147;SDS011;12309;51.450;-2.624;2023-07-13T07:19:43;3.95;;;1.30;;
24147;SDS011;12309;51.450;-2.624;2023-07-13T07:22:09;3.97;;;1.50;;
24147;SDS011;12309;51.450;-2.624;2023-07-13T07:24:35;3.13;;;1.60;;
24147;SDS011;12309;51.450;-2.624;2023-07-13T07:27:01;3.25;;;1.42;;
24147;SDS011;12309;51.450;-2.624;2023-07-13T07:29:26;3.22;;;1.50;;
24147;SDS011;12309;51.450;-2.624;2023-07-13T07:31:52;5.53;;;1.55;;
24147;SDS011;12309;51.450;-2.624;2023-07-13T07:34:18;3.97;;;1.25;;
24147;SDS011;12309;51.450;-2.624;2023-07-13T07:36:44;6.30;;;1.75;;
24147;SDS011;12309;51.450;-2.624;2023-07-13T07:39:09;6.25;;;2.03;;
24147;SDS011;12309;51.450;-2.624;2023-07-13T07:41:36;4.93;;;1.65;;
24147;SDS011;12309;51.450;-2.624;2023-07-13T07:44:02;4.97;;;1.48;;
24147;SDS011;12309;51.450;-2.624;2023-07-13T07:46:29;3.20;;;1.40;;
24147;SDS011;12309;51.450;-2.624;2023-07-13T07:48:55;10.98;;;1.65;;
24147;SDS011;12309;51.450;-2.624;2023-07-13T07:51:21;3.55;;;1.42;;
24147;SDS011;12309;51.450;-2.624;2023-07-13T07:53:47;3.47;;;1.48;;
24147;SDS011;12309;51.450;-2.624;2023-07-13T07:56:13;6.68;;;1.55;;
24147;SDS011;12309;51.450;-2.624;2023-07-13T07:58:41;6.60;;;1.98;;
24147;SDS011;12309;51.450;-2.624;2023-07-13T08:01:07;4.22;;;2.05;;
24147;SDS011;12309;51.450;-2.624;2023-07-13T08:03:32;5.25;;;1.77;;
24147;SDS011;12309;51.450;-2.624;2023-07-13T08:05:58;3.05;;;1.60;;
24147;SDS011;12309;51.450;-2.624;2023-07-13T08:08:24;4.88;;;1.80;;
24147;SDS011;12309;51.450;-2.624;2023-07-13T08:10:50;8.77;;;1.80;;
24147;SDS011;12309;51.450;-2.624;2023-07-13T08:13:16;3.08;;;1.30;;
24147;SDS011;12309;51.450;-2.624;2023-07-13T08:15:42;3.63;;;1.38;;
24147;SDS011;12309;51.450;-2.624;2023-07-13T08:18:07;3.95;;;1.63;;
24147;SDS011;12309;51.450;-2.624;2023-07-13T08:20:36;6.70;;;1.70;;
24147;SDS011;12309;51.450;-2.624;2023-07-13T08:23:04;6.28;;;1.63;;
24147;SDS011;12309;51.450;-2.624;2023-07-13T08:25:30;7.07;;;1.80;;
24147;SDS011;12309;51.450;-2.624;2023-07-13T08:27:56;4.18;;;1.98;;
24147;SDS011;12309;51.450;-2.624;2023-07-13T08:30:22;7.05;;;2.03;;
24147;SDS011;12309;51.450;-2.624;2023-07-13T08:32:48;3.70;;;1.55;;
24147;SDS011;12309;51.450;-2.624;2023-07-13T08:35:14;4.72;;;1.77;;
24147;SDS011;12309;51.450;-2.624;2023-07-13T08:37:41;5.50;;;1.90;;
24147;SDS011;12309;51.450;-2.624;2023-07-13T08:40:08;3.53;;;1.33;;
24147;SDS011;12309;51.450;-2.624;2023-07-13T08:48:01;3.20;;;1.58;;
24147;SDS011;12309;51.450;-2.624;2023-07-13T08:50:39;3.70;;;1.80;;
24147;SDS011;12309;51.450;-2.624;2023-07-13T08:53:33;4.45;;;1.70;;
24147;SDS011;12309;51.450;-2.624;2023-07-13T08:56:03;3.95;;;1.75;;
24147;SDS011;12309;51.450;-2.624;2023-07-13T08:58:34;5.53;;;2.10;;
24147;SDS011;12309;51.450;-2.624;2023-07-13T09:06:48;3.97;;;1.42;;
24147;SDS011;12309;51.450;-2.624;2023-07-13T09:11:52;3.22;;;1.30;;
24147;SDS011;12309;51.450;-2.624;2023-07-13T09:14:31;3.78;;;1.10;;
24147;SDS011;12309;51.450;-2.624;2023-07-13T09:17:29;5.43;;;0.90;;
24147;SDS011;12309;51.450;-2.624;2023-07-13T09:20:31;1.55;;;0.93;;
24147;SDS011;12309;51.450;-2.624;2023-07-13T09:23:05;2.42;;;0.90;;
24147;SDS011;12309;51.450;-2.624;2023-07-13T09:25:33;3.65;;;0.77;;
24147;SDS011;12309;51.450;-2.624;2023-07-13T09:31:06;4.50;;;1.13;;
24147;SDS011;12309;51.450;-2.624;2023-07-13T09:33:37;3.55;;;0.93;;
24147;SDS011;12309;51.450;-2.624;2023-07-13T09:36:13;2.72;;;0.90;;
24147;SDS011;12309;51.450;-2.624;2023-07-13T09:38:52;5.43;;;0.93;;
24147;SDS011;12309;51.450;-2.624;2023-07-13T09:44:31;2.25;;;0.80;;
24147;SDS011;12309;51.450;-2.624;2023-07-13T09:47:00;2.42;;;0.93;;
24147;SDS011;12309;51.450;-2.624;2023-07-13T09:49:28;8.23;;;1.13;;
24147;SDS011;12309;51.450;-2.624;2023-07-13T09:52:10;2.67;;;1.00;;
24147;SDS011;12309;51.450;-2.624;2023-07-13T09:54:37;3.40;;;1.17;;
24147;SDS011;12309;51.450;-2.624;2023-07-13T09:57:03;2.13;;;0.93;;
24147;SDS011;12309;51.450;-2.624;2023-07-13T09:59:40;3.22;;;1.00;;
24147;SDS011;12309;51.450;-2.624;2023-07-13T10:02:41;2.85;;;1.10;;
24147;SDS011;12309;51.450;-2.624;2023-07-13T10:05:11;1.92;;;0.80;;
24147;SDS011;12309;51.450;-2.624;2023-07-13T10:07:42;4.00;;;1.23;;
24147;SDS011;12309;51.450;-2.624;2023-07-13T10:10:13;3.45;;;1.02;;
24147;SDS011;12309;51.450;-2.624;2023-07-13T10:12:41;3.00;;;0.95;;
24147;SDS011;12309;51.450;-2.624;2023-07-13T10:15:07;3.53;;;1.20;;
24147;SDS011;12309;51.450;-2.624;2023-07-13T10:17:40;4.38;;;1.67;;
24147;SDS011;12309;51.450;-2.624;2023-07-13T10:20:06;2.90;;;1.13;;
24147;SDS011;12309;51.450;-2.624;2023-07-13T10:22:54;5.63;;;1.20;;
24147;SDS011;12309;51.450;-2.624;2023-07-13T10:25:32;4.47;;;1.00;;
24147;SDS011;12309;51.450;-2.624;2023-07-13T10:28:04;2.78;;;0.80;;
24147;SDS011;12309;51.450;-2.624;2023-07-13T10:30:46;5.97;;;1.25;;
24147;SDS011;12309;51.450;-2.624;2023-07-13T10:33:13;3.95;;;0.60;;
24147;SDS011;12309;51.450;-2.624;2023-07-13T10:35:40;4.13;;;1.05;;
24147;SDS011;12309;51.450;-2.624;2023-07-13T10:38:12;5.35;;;1.00;;
24147;SDS011;12309;51.450;-2.624;2023-07-13T10:40:43;4.30;;;1.20;;
24147;SDS011;12309;51.450;-2.624;2023-07-13T10:43:18;3.17;;;1.00;;
24147;SDS011;12309;51.450;-2.624;2023-07-13T10:45:49;3.63;;;1.15;;
24147;SDS011;12309;51.450;-2.624;2023-07-13T10:48:16;3.47;;;0.90;;
24147;SDS011;12309;51.450;-2.624;2023-07-13T10:50:44;2.33;;;0.85;;
24147;SDS011;12309;51.450;-2.624;2023-07-13T10:58:21;6.40;;;1.40;;
24147;SDS011;12309;51.450;-2.624;2023-07-13T11:03:31;2.10;;;0.90;;
24147;SDS011;12309;51.450;-2.624;2023-07-13T11:06:07;3.20;;;0.90;;
24147;SDS011;12309;51.450;-2.624;2023-07-13T11:08:38;2.72;;;0.80;;
24147;SDS011;12309;51.450;-2.624;2023-07-13T11:11:31;1.85;;;0.98;;
24147;SDS011;12309;51.450;-2.624;2023-07-13T11:14:00;1.23;;;0.88;;
24147;SDS011;12309;51.450;-2.624;2023-07-13T11:16:43;5.43;;;0.90;;
24147;SDS011;12309;51.450;-2.624;2023-07-13T11:27:34;2.00;;;0.63;;
24147;SDS011;12309;51.450;-2.624;2023-07-13T11:30:08;2.78;;;0.98;;
24147;SDS011;12309;51.450;-2.624;2023-07-13T11:32:49;3.08;;;1.20;;
24147;SDS011;12309;51.450;-2.624;2023-07-13T11:35:38;1.52;;;0.80;;
24147;SDS011;12309;51.450;-2.624;2023-07-13T11:38:22;5.55;;;1.00;;
24147;SDS011;12309;51.450;-2.624;2023-07-13T11:40:53;3.17;;;1.30;;
24147;SDS011;12309;51.450;-2.624;2023-07-13T11:43:20;3.08;;;1.20;;
24147;SDS011;12309;51.450;-2.624;2023-07-13T11:45:48;3.25;;;1.08;;
24147;SDS011;12309;51.450;-2.624;2023-07-13T11:48:18;5.10;;;1.10;;
24147;SDS011;12309;51.450;-2.624;2023-07-13T11:50:49;1.67;;;0.80;;
24147;SDS011;12309;51.450;-2.624;2023-07-13T11:53:38;2.33;;;0.80;;
24147;SDS011;12309;51.450;-2.624;2023-07-13T11:56:10;4.32;;;0.90;;
24147;SDS011;12309;51.450;-2.624;2023-07-13T11:58:36;4.30;;;1.05;;
24147;SDS011;12309;51.450;-2.624;2023-07-13T12:01:02;2.97;;;1.20;;
24147;SDS011;12309;51.450;-2.624;2023-07-13T12:03:30;4.13;;;1.10;;
24147;SDS011;12309;51.450;-2.624;2023-07-13T12:06:03;3.08;;;1.08;;
24147;SDS011;12309;51.450;-2.624;2023-07-13T12:08:39;2.13;;;0.82;;
24147;SDS011;12309;51.450;-2.624;2023-07-13T12:11:06;2.92;;;0.93;;
24147;SDS011;12309;51.450;-2.624;2023-07-13T12:13:40;4.22;;;1.13;;
24147;SDS011;12309;51.450;-2.624;2023-07-13T12:16:16;2.65;;;1.02;;
24147;SDS011;12309;51.450;-2.624;2023-07-13T12:18:49;3.83;;;1.10;;
24147;SDS011;12309;51.450;-2.624;2023-07-13T12:21:18;3.92;;;1.20;;
24147;SDS011;12309;51.450;-2.624;2023-07-13T12:23:47;3.60;;;1.00;;
24147;SDS011;12309;51.450;-2.624;2023-07-13T12:26:14;4.30;;;1.02;;
24147;SDS011;12309;51.450;-2.624;2023-07-13T12:28:51;1.90;;;0.90;;
24147;SDS011;12309;51.450;-2.624;2023-07-13T12:31:37;5.80;;;1.02;;
24147;SDS011;12309;51.450;-2.624;2023-07-13T12:34:11;6.50;;;1.73;;
24147;SDS011;12309;51.450;-2.624;2023-07-13T12:36:49;4.25;;;1.08;;
24147;SDS011;12309;51.450;-2.624;2023-07-13T12:39:37;3.13;;;1.35;;
24147;SDS011;12309;51.450;-2.624;2023-07-13T12:42:31;4.07;;;1.42;;
24147;SDS011;12309;51.450;-2.624;2023-07-13T12:44:58;6.07;;;1.08;;
24147;SDS011;12309;51.450;-2.624;2023-07-13T12:47:29;5.80;;;1.30;;
24147;SDS011;12309;51.450;-2.624;2023-07-13T12:49:57;2.88;;;0.93;;
24147;SDS011;12309;51.450;-2.624;2023-07-13T12:52:31;3.13;;;0.95;;
24147;SDS011;12309;51.450;-2.624;2023-07-13T12:55:02;2.83;;;0.80;;
24147;SDS011;12309;51.450;-2.624;2023-07-13T12:57:45;6.47;;;1.33;;
24147;SDS011;12309;51.450;-2.624;2023-07-13T13:00:36;4.97;;;1.50;;
24147;SDS011;12309;51.450;-2.624;2023-07-13T13:06:02;8.40;;;2.03;;
24147;SDS011;12309;51.450;-2.624;2023-07-13T13:08:30;4.00;;;1.20;;
24147;SDS011;12309;51.450;-2.624;2023-07-13T13:10:57;4.38;;;1.23;;
24147;SDS011;12309;51.450;-2.624;2023-07-13T13:13:23;5.90;;;1.40;;
24147;SDS011;12309;51.450;-2.624;2023-07-13T13:15:49;5.15;;;1.30;;
24147;SDS011;12309;51.450;-2.624;2023-07-13T13:18:22;3.47;;;1.30;;
24147;SDS011;12309;51.450;-2.624;2023-07-13T13:20:49;5.50;;;1.15;;
24147;SDS011;12309;51.450;-2.624;2023-07-13T13:23:16;2.22;;;1.20;;
24147;SDS011;12309;51.450;-2.624;2023-07-13T13:25:43;3.45;;;1.20;;
24147;SDS011;12309;51.450;-2.624;2023-07-13T13:28:14;6.70;;;1.63;;
24147;SDS011;12309;51.450;-2.624;2023-07-13T13:30:44;2.65;;;1.13;;
24147;SDS011;12309;51.450;-2.624;2023-07-13T13:33:12;2.80;;;1.10;;
24147;SDS011;12309;51.450;-2.624;2023-07-13T13:35:39;4.05;;;1.05;;
24147;SDS011;12309;51.450;-2.624;2023-07-13T13:38:15;7.13;;;1.50;;
24147;SDS011;12309;51.450;-2.624;2023-07-13T13:40:44;2.78;;;1.00;;
24147;SDS011;12309;51.450;-2.624;2023-07-13T13:43:23;9.13;;;1.50;;
24147;SDS011;12309;51.450;-2.624;2023-07-13T13:45:51;6.90;;;1.42;;
24147;SDS011;12309;51.450;-2.624;2023-07-13T13:48:20;4.55;;;1.30;;
24147;SDS011;12309;51.450;-2.624;2023-07-13T13:50:55;9.77;;;1.90;;
24147;SDS011;12309;51.450;-2.624;2023-07-13T13:53:21;6.28;;;1.70;;
24147;SDS011;12309;51.450;-2.624;2023-07-13T13:55:48;11.60;;;1.70;;
24147;SDS011;12309;51.450;-2.624;2023-07-13T13:58:14;4.15;;;1.70;;
24147;SDS011;12309;51.450;-2.624;2023-07-13T14:00:40;4.25;;;1.70;;
24147;SDS011;12309;51.450;-2.624;2023-07-13T14:03:15;9.15;;;2.25;;
24147;SDS011;12309;51.450;-2.624;2023-07-13T14:05:43;6.35;;;2.33;;
24147;SDS011;12309;51.450;-2.624;2023-07-13T14:08:16;4.93;;;2.00;;
24147;SDS011;12309;51.450;-2.624;2023-07-13T14:10:46;4.65;;;2.00;;
24147;SDS011;12309;51.450;-2.624;2023-07-13T14:13:16;7.18;;;1.90;;
24147;SDS011;12309;51.450;-2.624;2023-07-13T14:15:45;8.38;;;2.05;;
24147;SDS011;12309;51.450;-2.624;2023-07-13T14:18:11;7.45;;;1.60;;
24147;SDS011;12309;51.450;-2.624;2023-07-13T14:20:37;6.13;;;1.80;;
24147;SDS011;12309;51.450;-2.624;2023-07-13T14:23:05;8.20;;;2.10;;
24147;SDS011;12309;51.450;-2.624;2023-07-13T14:25:31;5.57;;;1.90;;
24147;SDS011;12309;51.450;-2.624;2023-07-13T14:27:57;4.45;;;1.80;;
24147;SDS011;12309;51.450;-2.624;2023-07-13T14:30:26;7.50;;;2.45;;
24147;SDS011;12309;51.450;-2.624;2023-07-13T14:32:51;3.15;;;1.60;;
24147;SDS011;12309;51.450;-2.624;2023-07-13T14:35:19;6.15;;;2.35;;
24147;SDS011;12309;51.450;-2.624;2023-07-13T14:37:48;5.32;;;1.90;;
24147;SDS011;12309;51.450;-2.624;2023-07-13T14:40:15;4.05;;;1.77;;
24147;SDS011;12309;51.450;-2.624;2023-07-13T14:42:43;5.13;;;1.92;;
24147;SDS011;12309;51.450;-2.624;2023-07-13T14:45:12;6.72;;;1.60;;
24147;SDS011;12309;51.450;-2.624;2023-07-13T14:47:42;4.40;;;1.52;;
24147;SDS011;12309;51.450;-2.624;2023-07-13T14:50:12;4.38;;;1.65;;
24147;SDS011;12309;51.450;-2.624;2023-07-13T14:52:39;3.08;;;1.42;;
24147;SDS011;12309;51.450;-2.624;2023-07-13T14:55:08;4.22;;;1.63;;
24147;SDS011;12309;51.450;-2.624;2023-07-13T14:57:37;5.13;;;1.63;;
24147;SDS011;12309;51.450;-2.624;2023-07-13T15:00:04;7.68;;;1.92;;
24147;SDS011;12309;51.450;-2.624;2023-07-13T15:02:37;6.15;;;1.50;;
24147;SDS011;12309;51.450;-2.624;2023-07-13T15:05:08;6.00;;;1.50;;
24147;SDS011;12309;51.450;-2.624;2023-07-13T15:07:45;6.60;;;1.92;;
24147;SDS011;12309;51.450;-2.624;2023-07-13T15:10:15;3.47;;;1.55;;
24147;SDS011;12309;51.450;-2.624;2023-07-13T15:12:50;7.53;;;1.92;;
24147;SDS011;12309;51.450;-2.624;2023-07-13T15:15:16;4.68;;;1.70;;
24147;SDS011;12309;51.450;-2.624;2023-07-13T15:17:43;8.73;;;2.03;;
24147;SDS011;12309;51.450;-2.624;2023-07-13T15:22:44;4.65;;;1.25;;
24147;SDS011;12309;51.450;-2.624;2023-07-13T15:25:15;4.15;;;1.55;;
24147;SDS011;12309;51.450;-2.624;2023-07-13T15:27:45;7.22;;;1.75;;